Aviation Digital Data Service (ADDS)

Output produced by METARs form (0242 UTC 22 April 2019)
found at http://www.aviationweather.gov/metar/data/
 
METAR text: BIAR 220200Z 30006KT 9999 DZ SCT020 BKN023 OVC029 04/01 Q1002
Conditions at: BIAR (AKUREYRI , IS) observed 0200 UTC 22 April 2019
Temperature: 4.0°C (39°F)
Dewpoint: 1.0°C (34°F) [RH = 81%]
Pressure (altimeter): 29.59 inches Hg (1002.0 mb)
Winds: from the WNW (300 degrees) at 7 MPH (6 knots; 3.1 m/s)
Visibility: 6 or more miles (10+ km)
Ceiling: 2300 feet AGL
Clouds: scattered clouds at 2000 feet AGL
broken clouds at 2300 feet AGL
overcast cloud deck at 2900 feet AGL
Weather: DZ  (moderate drizzle)

METAR text: BIAR 220100Z 31006KT 270V350 9999 DZ FEW024 SCT032 OVC037 05/00 Q1002
Conditions at: BIAR (AKUREYRI , IS) observed 0100 UTC 22 April 2019
Temperature: 5.0°C (41°F)
Dewpoint: 0.0°C (32°F) [RH = 70%]
Pressure (altimeter): 29.59 inches Hg (1002.0 mb)
Winds: from the NW (310 degrees) at 7 MPH (6 knots; 3.1 m/s)
Visibility: 6 or more miles (10+ km)
Ceiling: 3700 feet AGL
Clouds: few clouds at 2400 feet AGL
scattered clouds at 3200 feet AGL
overcast cloud deck at 3700 feet AGL
Weather: DZ  (moderate drizzle)

METAR text: BIAR 220000Z 29005KT 250V330 9999 DZ OVC026 05/00 Q1003
Conditions at: BIAR (AKUREYRI , IS) observed 0000 UTC 22 April 2019
Temperature: 5.0°C (41°F)
Dewpoint: 0.0°C (32°F) [RH = 70%]
Pressure (altimeter): 29.62 inches Hg (1003.0 mb)
Winds: from the WNW (290 degrees) at 6 MPH (5 knots; 2.6 m/s)
Visibility: 6 or more miles (10+ km)
Ceiling: 2600 feet AGL
Clouds: overcast cloud deck at 2600 feet AGL
Weather: DZ  (moderate drizzle)

METAR text: BIAR 212300Z VRB05KT 9999 FEW035 BKN040 OVC046 06/M00 Q1003
Conditions at: BIAR (AKUREYRI , IS) observed 2300 UTC 21 April 2019
Temperature: 6.0°C (43°F)
Dewpoint: 0.0°C (32°F) [RH = 65%]
Pressure (altimeter): 29.62 inches Hg (1003.0 mb)
Winds: variable direction winds at 6 MPH (5 knots; 2.6 m/s)
Visibility: 6 or more miles (10+ km)
Ceiling: 4000 feet AGL
Clouds: few clouds at 3500 feet AGL
broken clouds at 4000 feet AGL
overcast cloud deck at 4600 feet AGL
Weather: no significant weather observed at this time

METAR text: BIAR 212200Z 29005KT 240V330 9999 BKN035 OVC053 06/00 Q1003
Conditions at: BIAR (AKUREYRI , IS) observed 2200 UTC 21 April 2019
Temperature: 6.0°C (43°F)
Dewpoint: 0.0°C (32°F) [RH = 65%]
Pressure (altimeter): 29.62 inches Hg (1003.0 mb)
Winds: from the WNW (290 degrees) at 6 MPH (5 knots; 2.6 m/s)
Visibility: 6 or more miles (10+ km)
Ceiling: 3500 feet AGL
Clouds: broken clouds at 3500 feet AGL
overcast cloud deck at 5300 feet AGL
Weather: no significant weather observed at this time

METAR text: BIAR 212100Z 29008KT 260V320 9999 -DZ BKN023 OVC026 06/00 Q1003
Conditions at: BIAR (AKUREYRI , IS) observed 2100 UTC 21 April 2019
Temperature: 6.0°C (43°F)
Dewpoint: 0.0°C (32°F) [RH = 65%]
Pressure (altimeter): 29.62 inches Hg (1003.0 mb)
Winds: from the WNW (290 degrees) at 9 MPH (8 knots; 4.1 m/s)
Visibility: 6 or more miles (10+ km)
Ceiling: 2300 feet AGL
Clouds: broken clouds at 2300 feet AGL
overcast cloud deck at 2600 feet AGL
Weather: -DZ  (light drizzle)

METAR text: BIAR 212000Z 36009KT 9999 OVC031 06/M00 Q1003
Conditions at: BIAR (AKUREYRI , IS) observed 2000 UTC 21 April 2019
Temperature: 6.0°C (43°F)
Dewpoint: 0.0°C (32°F) [RH = 65%]
Pressure (altimeter): 29.62 inches Hg (1003.0 mb)
Winds: from the N (360 degrees) at 10 MPH (9 knots; 4.6 m/s)
Visibility: 6 or more miles (10+ km)
Ceiling: 3100 feet AGL
Clouds: overcast cloud deck at 3100 feet AGL
Weather: no significant weather observed at this time

METAR text: BIAR 211900Z 34008KT 310V010 9999 BKN034 OVC066 07/M01 Q1003
Conditions at: BIAR (AKUREYRI , IS) observed 1900 UTC 21 April 2019
Temperature: 7.0°C (45°F)
Dewpoint: -1.0°C (30°F) [RH = 57%]
Pressure (altimeter): 29.62 inches Hg (1003.0 mb)
Winds: from the NNW (340 degrees) at 9 MPH (8 knots; 4.1 m/s)
Visibility: 6 or more miles (10+ km)
Ceiling: 3400 feet AGL
Clouds: broken clouds at 3400 feet AGL
overcast cloud deck at 6600 feet AGL
Weather: no significant weather observed at this time

METAR text: BIAR 211800Z 33008KT 9999 BKN048 BKN063 07/M01 Q1003
Conditions at: BIAR (AKUREYRI , IS) observed 1800 UTC 21 April 2019
Temperature: 7.0°C (45°F)
Dewpoint: -1.0°C (30°F) [RH = 57%]
Pressure (altimeter): 29.62 inches Hg (1003.0 mb)
Winds: from the NNW (330 degrees) at 9 MPH (8 knots; 4.1 m/s)
Visibility: 6 or more miles (10+ km)
Ceiling: 4800 feet AGL
Clouds: broken clouds at 4800 feet AGL
broken clouds at 6300 feet AGL
Weather: no significant weather observed at this time

METAR text: BIAR 211700Z 06011KT 9999 BKN061 08/M00 Q1004
Conditions at: BIAR (AKUREYRI , IS) observed 1700 UTC 21 April 2019
Temperature: 8.0°C (46°F)
Dewpoint: 0.0°C (32°F) [RH = 57%]
Pressure (altimeter): 29.65 inches Hg (1004.0 mb)
Winds: from the ENE (60 degrees) at 13 MPH (11 knots; 5.7 m/s)
Visibility: 6 or more miles (10+ km)
Ceiling: 6100 feet AGL
Clouds: broken clouds at 6100 feet AGL
Weather: no significant weather observed at this time

METAR text: BIAR 211600Z 04009KT 010V070 9999 OVC058 08/00 Q1005
Conditions at: BIAR (AKUREYRI , IS) observed 1600 UTC 21 April 2019
Temperature: 8.0°C (46°F)
Dewpoint: 0.0°C (32°F) [RH = 57%]
Pressure (altimeter): 29.68 inches Hg (1005.0 mb)
Winds: from the NE (40 degrees) at 10 MPH (9 knots; 4.6 m/s)
Visibility: 6 or more miles (10+ km)
Ceiling: 5800 feet AGL
Clouds: overcast cloud deck at 5800 feet AGL
Weather: no significant weather observed at this time

METAR text: BIAR 211500Z 03006KT 360V060 9999 OVC057 07/M01 Q1005
Conditions at: BIAR (AKUREYRI , IS) observed 1500 UTC 21 April 2019
Temperature: 7.0°C (45°F)
Dewpoint: -1.0°C (30°F) [RH = 57%]
Pressure (altimeter): 29.68 inches Hg (1005.0 mb)
Winds: from the NNE (30 degrees) at 7 MPH (6 knots; 3.1 m/s)
Visibility: 6 or more miles (10+ km)
Ceiling: 5700 feet AGL
Clouds: overcast cloud deck at 5700 feet AGL
Weather: no significant weather observed at this time

METAR text: BIAR 211400Z 34006KT 9999 SCT049 OVC058 08/M02 Q1006
Conditions at: BIAR (AKUREYRI , IS) observed 1400 UTC 21 April 2019
Temperature: 8.0°C (46°F)
Dewpoint: -2.0°C (28°F) [RH = 49%]
Pressure (altimeter): 29.70 inches Hg (1006.0 mb)
Winds: from the NNW (340 degrees) at 7 MPH (6 knots; 3.1 m/s)
Visibility: 6 or more miles (10+ km)
Ceiling: 5800 feet AGL
Clouds: scattered clouds at 4900 feet AGL
overcast cloud deck at 5800 feet AGL
Weather: no significant weather observed at this time

METAR text: BIAR 211300Z 35005KT 9999 FEW048 OVC060 08/M01 Q1006
Conditions at: BIAR (AKUREYRI , IS) observed 1300 UTC 21 April 2019
Temperature: 8.0°C (46°F)
Dewpoint: -1.0°C (30°F) [RH = 53%]
Pressure (altimeter): 29.70 inches Hg (1006.0 mb)
Winds: from the N (350 degrees) at 6 MPH (5 knots; 2.6 m/s)
Visibility: 6 or more miles (10+ km)
Ceiling: 6000 feet AGL
Clouds: few clouds at 4800 feet AGL
overcast cloud deck at 6000 feet AGL
Weather: no significant weather observed at this time

METAR text: BIAR 211200Z VRB01KT 9999 OVC058 08/M03 Q1007
Conditions at: BIAR (AKUREYRI , IS) observed 1200 UTC 21 April 2019
Temperature: 8.0°C (46°F)
Dewpoint: -3.0°C (27°F) [RH = 46%]
Pressure (altimeter): 29.73 inches Hg (1007.0 mb)
Winds: variable direction winds at 1 MPH (1 knots; 0.5 m/s)
Visibility: 6 or more miles (10+ km)
Ceiling: 5800 feet AGL
Clouds: overcast cloud deck at 5800 feet AGL
Weather: no significant weather observed at this time

METAR text: BIAR 211100Z 17006KT 150V210 9999 OVC060 08/M03 Q1007
Conditions at: BIAR (AKUREYRI , IS) observed 1100 UTC 21 April 2019
Temperature: 8.0°C (46°F)
Dewpoint: -3.0°C (27°F) [RH = 46%]
Pressure (altimeter): 29.73 inches Hg (1007.0 mb)
Winds: from the S (170 degrees) at 7 MPH (6 knots; 3.1 m/s)
Visibility: 6 or more miles (10+ km)
Ceiling: 6000 feet AGL
Clouds: overcast cloud deck at 6000 feet AGL
Weather: no significant weather observed at this time

METAR text: BIAR 211000Z 17010KT 9999 BKN060 08/M03 Q1007
Conditions at: BIAR (AKUREYRI , IS) observed 1000 UTC 21 April 2019
Temperature: 8.0°C (46°F)
Dewpoint: -3.0°C (27°F) [RH = 46%]
Pressure (altimeter): 29.73 inches Hg (1007.0 mb)
Winds: from the S (170 degrees) at 12 MPH (10 knots; 5.1 m/s)
Visibility: 6 or more miles (10+ km)
Ceiling: 6000 feet AGL
Clouds: broken clouds at 6000 feet AGL
Weather: no significant weather observed at this time

METAR text: BIAR 210900Z 19010KT CAVOK 07/M03 Q1007
Conditions at: BIAR (AKUREYRI , IS) observed 0900 UTC 21 April 2019
Temperature: 7.0°C (45°F)
Dewpoint: -3.0°C (27°F) [RH = 49%]
Pressure (altimeter): 29.73 inches Hg (1007.0 mb)
Winds: from the S (190 degrees) at 12 MPH (10 knots; 5.1 m/s)
Visibility: 6 or more miles (10+ km)
Ceiling: ceiling and visibility are OK
Clouds: unknown
Weather: no significant weather observed at this time

METAR text: BIAR 210800Z 17010KT 9999 SCT056 07/M01 Q1007
Conditions at: BIAR (AKUREYRI , IS) observed 0800 UTC 21 April 2019
Temperature: 7.0°C (45°F)
Dewpoint: -1.0°C (30°F) [RH = 57%]
Pressure (altimeter): 29.73 inches Hg (1007.0 mb)
Winds: from the S (170 degrees) at 12 MPH (10 knots; 5.1 m/s)
Visibility: 6 or more miles (10+ km)
Ceiling: at least 12,000 feet AGL
Clouds: scattered clouds at 5600 feet AGL
Weather: no significant weather observed at this time

METAR text: BIAR 210700Z 12008KT 9999 FEW059 05/M01 Q1008
Conditions at: BIAR (AKUREYRI , IS) observed 0700 UTC 21 April 2019
Temperature: 5.0°C (41°F)
Dewpoint: -1.0°C (30°F) [RH = 65%]
Pressure (altimeter): 29.76 inches Hg (1008.0 mb)
Winds: from the ESE (120 degrees) at 9 MPH (8 knots; 4.1 m/s)
Visibility: 6 or more miles (10+ km)
Ceiling: at least 12,000 feet AGL
Clouds: few clouds at 5900 feet AGL
Weather: no significant weather observed at this time

METAR text: BIAR 210600Z 18009KT 9999 FEW058 03/M02 Q1008
Conditions at: BIAR (AKUREYRI , IS) observed 0600 UTC 21 April 2019
Temperature: 3.0°C (37°F)
Dewpoint: -2.0°C (28°F) [RH = 70%]
Pressure (altimeter): 29.76 inches Hg (1008.0 mb)
Winds: from the S (180 degrees) at 10 MPH (9 knots; 4.6 m/s)
Visibility: 6 or more miles (10+ km)
Ceiling: at least 12,000 feet AGL
Clouds: few clouds at 5800 feet AGL
Weather: no significant weather observed at this time

METAR text: BIAR 210500Z 14010KT 110V190 9999 FEW056 04/M02 Q1008
Conditions at: BIAR (AKUREYRI , IS) observed 0500 UTC 21 April 2019
Temperature: 4.0°C (39°F)
Dewpoint: -2.0°C (28°F) [RH = 65%]
Pressure (altimeter): 29.76 inches Hg (1008.0 mb)
Winds: from the SE (140 degrees) at 12 MPH (10 knots; 5.1 m/s)
Visibility: 6 or more miles (10+ km)
Ceiling: at least 12,000 feet AGL
Clouds: few clouds at 5600 feet AGL
Weather: no significant weather observed at this time

METAR text: BIAR 210400Z 19011KT 9999 SCT048 06/M01 Q1008
Conditions at: BIAR (AKUREYRI , IS) observed 0400 UTC 21 April 2019
Temperature: 6.0°C (43°F)
Dewpoint: -1.0°C (30°F) [RH = 61%]
Pressure (altimeter): 29.76 inches Hg (1008.0 mb)
Winds: from the S (190 degrees) at 13 MPH (11 knots; 5.7 m/s)
Visibility: 6 or more miles (10+ km)
Ceiling: at least 12,000 feet AGL
Clouds: scattered clouds at 4800 feet AGL
Weather: no significant weather observed at this time

METAR text: BIAR 210300Z 16014KT 9999 SCT048 06/M00 Q1007
Conditions at: BIAR (AKUREYRI , IS) observed 0300 UTC 21 April 2019
Temperature: 6.0°C (43°F)
Dewpoint: 0.0°C (32°F) [RH = 65%]
Pressure (altimeter): 29.73 inches Hg (1007.0 mb)
Winds: from the SSE (160 degrees) at 16 MPH (14 knots; 7.2 m/s)
Visibility: 6 or more miles (10+ km)
Ceiling: at least 12,000 feet AGL
Clouds: scattered clouds at 4800 feet AGL
Weather: no significant weather observed at this time

METAR text: BIAR 210200Z 19012KT 9999 FEW056 07/M02 Q1007
Conditions at: BIAR (AKUREYRI , IS) observed 0200 UTC 21 April 2019
Temperature: 7.0°C (45°F)
Dewpoint: -2.0°C (28°F) [RH = 53%]
Pressure (altimeter): 29.73 inches Hg (1007.0 mb)
Winds: from the S (190 degrees) at 14 MPH (12 knots; 6.2 m/s)
Visibility: 6 or more miles (10+ km)
Ceiling: at least 12,000 feet AGL
Clouds: few clouds at 5600 feet AGL
Weather: no significant weather observed at this time

METAR text: BIAR 210100Z 19014KT 9999 BKN056 07/M01 Q1007
Conditions at: BIAR (AKUREYRI , IS) observed 0100 UTC 21 April 2019
Temperature: 7.0°C (45°F)
Dewpoint: -1.0°C (30°F) [RH = 57%]
Pressure (altimeter): 29.73 inches Hg (1007.0 mb)
Winds: from the S (190 degrees) at 16 MPH (14 knots; 7.2 m/s)
Visibility: 6 or more miles (10+ km)
Ceiling: 5600 feet AGL
Clouds: broken clouds at 5600 feet AGL
Weather: no significant weather observed at this time

METAR text: BIAR 210000Z 19008KT 170V230 9999 SCT051 07/M00 Q1005
Conditions at: BIAR (AKUREYRI , IS) observed 0000 UTC 21 April 2019
Temperature: 7.0°C (45°F)
Dewpoint: 0.0°C (32°F) [RH = 61%]
Pressure (altimeter): 29.68 inches Hg (1005.0 mb)
Winds: from the S (190 degrees) at 9 MPH (8 knots; 4.1 m/s)
Visibility: 6 or more miles (10+ km)
Ceiling: at least 12,000 feet AGL
Clouds: scattered clouds at 5100 feet AGL
Weather: no significant weather observed at this time

METAR text: BIAR 202300Z 18016G26KT 9999 BKN054 07/01 Q1005
Conditions at: BIAR (AKUREYRI , IS) observed 2300 UTC 20 April 2019
Temperature: 7.0°C (45°F)
Dewpoint: 1.0°C (34°F) [RH = 66%]
Pressure (altimeter): 29.68 inches Hg (1005.0 mb)
Winds: from the S (180 degrees) at 18 MPH (16 knots; 8.2 m/s)
gusting to 30 MPH (26 knots; 13.4 m/s)
Visibility: 6 or more miles (10+ km)
Ceiling: 5400 feet AGL
Clouds: broken clouds at 5400 feet AGL
Weather: no significant weather observed at this time

METAR text: BIAR 202200Z 18017KT 9999 OVC054 07/01 Q1004
Conditions at: BIAR (AKUREYRI , IS) observed 2200 UTC 20 April 2019
Temperature: 7.0°C (45°F)
Dewpoint: 1.0°C (34°F) [RH = 66%]
Pressure (altimeter): 29.65 inches Hg (1004.0 mb)
Winds: from the S (180 degrees) at 20 MPH (17 knots; 8.7 m/s)
Visibility: 6 or more miles (10+ km)
Ceiling: 5400 feet AGL
Clouds: overcast cloud deck at 5400 feet AGL
Weather: no significant weather observed at this time

METAR text: BIAR 202100Z 16014KT 9999 -DZ BKN035 OVC048 07/02 Q1004
Conditions at: BIAR (AKUREYRI , IS) observed 2100 UTC 20 April 2019
Temperature: 7.0°C (45°F)
Dewpoint: 2.0°C (36°F) [RH = 70%]
Pressure (altimeter): 29.65 inches Hg (1004.0 mb)
Winds: from the SSE (160 degrees) at 16 MPH (14 knots; 7.2 m/s)
Visibility: 6 or more miles (10+ km)
Ceiling: 3500 feet AGL
Clouds: broken clouds at 3500 feet AGL
overcast cloud deck at 4800 feet AGL
Weather: -DZ  (light drizzle)

METAR text: BIAR 202000Z 17008KT 9999 -DZ OVC039 07/02 Q1004
Conditions at: BIAR (AKUREYRI , IS) observed 2000 UTC 20 April 2019
Temperature: 7.0°C (45°F)
Dewpoint: 2.0°C (36°F) [RH = 70%]
Pressure (altimeter): 29.65 inches Hg (1004.0 mb)
Winds: from the S (170 degrees) at 9 MPH (8 knots; 4.1 m/s)
Visibility: 6 or more miles (10+ km)
Ceiling: 3900 feet AGL
Clouds: overcast cloud deck at 3900 feet AGL
Weather: -DZ  (light drizzle)

METAR text: BIAR 201900Z 16015KT 9999 -DZ FEW031 BKN049 07/00 Q1004
Conditions at: BIAR (AKUREYRI , IS) observed 1900 UTC 20 April 2019
Temperature: 7.0°C (45°F)
Dewpoint: 0.0°C (32°F) [RH = 61%]
Pressure (altimeter): 29.65 inches Hg (1004.0 mb)
Winds: from the SSE (160 degrees) at 17 MPH (15 knots; 7.7 m/s)
Visibility: 6 or more miles (10+ km)
Ceiling: 4900 feet AGL
Clouds: few clouds at 3100 feet AGL
broken clouds at 4900 feet AGL
Weather: -DZ  (light drizzle)

METAR text: BIAR 201800Z 18019KT 9999 BKN063 10/M03 Q1003
Conditions at: BIAR (AKUREYRI , IS) observed 1800 UTC 20 April 2019
Temperature: 10.0°C (50°F)
Dewpoint: -3.0°C (27°F) [RH = 40%]
Pressure (altimeter): 29.62 inches Hg (1003.0 mb)
Winds: from the S (180 degrees) at 22 MPH (19 knots; 9.8 m/s)
Visibility: 6 or more miles (10+ km)
Ceiling: 6300 feet AGL
Clouds: broken clouds at 6300 feet AGL
Weather: no significant weather observed at this time

METAR text: BIAR 201700Z 18020KT 9999 BKN059 11/M04 Q1003
Conditions at: BIAR (AKUREYRI , IS) observed 1700 UTC 20 April 2019
Temperature: 11.0°C (52°F)
Dewpoint: -4.0°C (25°F) [RH = 35%]
Pressure (altimeter): 29.62 inches Hg (1003.0 mb)
Winds: from the S (180 degrees) at 23 MPH (20 knots; 10.3 m/s)
Visibility: 6 or more miles (10+ km)
Ceiling: 5900 feet AGL
Clouds: broken clouds at 5900 feet AGL
Weather: no significant weather observed at this time

METAR text: BIAR 201600Z 18015KT 9999 BKN057 11/M03 Q1002
Conditions at: BIAR (AKUREYRI , IS) observed 1600 UTC 20 April 2019
Temperature: 11.0°C (52°F)
Dewpoint: -3.0°C (27°F) [RH = 37%]
Pressure (altimeter): 29.59 inches Hg (1002.0 mb)
Winds: from the S (180 degrees) at 17 MPH (15 knots; 7.7 m/s)
Visibility: 6 or more miles (10+ km)
Ceiling: 5700 feet AGL
Clouds: broken clouds at 5700 feet AGL
Weather: no significant weather observed at this time

METAR text: BIAR 201500Z 18017KT 9999 BKN058 11/M03 Q1002
Conditions at: BIAR (AKUREYRI , IS) observed 1500 UTC 20 April 2019
Temperature: 11.0°C (52°F)
Dewpoint: -3.0°C (27°F) [RH = 37%]
Pressure (altimeter): 29.59 inches Hg (1002.0 mb)
Winds: from the S (180 degrees) at 20 MPH (17 knots; 8.7 m/s)
Visibility: 6 or more miles (10+ km)
Ceiling: 5800 feet AGL
Clouds: broken clouds at 5800 feet AGL
Weather: no significant weather observed at this time

Forecast for: BIAR (AKUREYRI , IS)
Text: TAF BIAR 220114Z 2203/2303 36008KT 9999 -RASN BKN020 OVC030 TX04/2216Z TN01/2206Z
Forecast period: 0300 UTC 22 April 2019 to 0300 UTC 23 April 2019
Forecast type: FROM: standard forecast or significant change
Winds: from the N (360 degrees) at 9 MPH (8 knots; 4.1 m/s)
Visibility: 6 or more miles 10+ km)
Ceiling: 2000 feet AGL
Clouds: broken clouds at 2000 feet AGL
overcast cloud deck at 3000 feet AGL
Weather: -RA -SN  (light rain, light snow)
Text: TEMPO 2203/2214 3000 SNRA BKN008 OVC015
Forecast period: 0300 to 1400 UTC 22 April 2019
Forecast type: TEMPORARY: The following changes expected for less than half the time period
Visibility: 1.86 miles (2.99 km)
Ceiling: 800 feet AGL
Clouds: broken clouds at 800 feet AGL
overcast cloud deck at 1500 feet AGL
Weather: SN RA  (moderate snow, moderate rain)